sensor_id;sensor_type;location;lat;lon;timestamp;P1;durP1;ratioP1;P2;durP2;ratioP2
24631;SDS011;59977;48.782;9.190;2023-05-20T00:01:00;7.45;;;3.45;;
24631;SDS011;59977;48.782;9.190;2023-05-20T00:03:26;9.02;;;3.78;;
24631;SDS011;59977;48.782;9.190;2023-05-20T00:05:53;16.95;;;4.47;;
24631;SDS011;59977;48.782;9.190;2023-05-20T00:08:19;13.77;;;4.70;;
24631;SDS011;59977;48.782;9.190;2023-05-20T00:10:45;9.43;;;4.25;;
24631;SDS011;59977;48.782;9.190;2023-05-20T00:13:10;12.05;;;4.40;;
24631;SDS011;59977;48.782;9.190;2023-05-20T00:15:36;8.25;;;4.30;;
24631;SDS011;59977;48.782;9.190;2023-05-20T00:18:02;15.80;;;4.15;;
24631;SDS011;59977;48.782;9.190;2023-05-20T00:20:28;13.02;;;4.05;;
24631;SDS011;59977;48.782;9.190;2023-05-20T00:22:54;13.07;;;4.35;;
24631;SDS011;59977;48.782;9.190;2023-05-20T00:25:20;6.65;;;4.20;;
24631;SDS011;59977;48.782;9.190;2023-05-20T00:27:46;10.20;;;4.15;;
24631;SDS011;59977;48.782;9.190;2023-05-20T00:30:11;7.72;;;4.25;;
24631;SDS011;59977;48.782;9.190;2023-05-20T00:32:37;15.30;;;4.28;;
24631;SDS011;59977;48.782;9.190;2023-05-20T00:35:03;7.32;;;4.18;;
24631;SDS011;59977;48.782;9.190;2023-05-20T00:37:29;7.28;;;4.10;;
24631;SDS011;59977;48.782;9.190;2023-05-20T00:39:55;13.07;;;4.50;;
24631;SDS011;59977;48.782;9.190;2023-05-20T00:42:21;11.07;;;4.30;;
24631;SDS011;59977;48.782;9.190;2023-05-20T00:44:47;15.30;;;4.70;;
24631;SDS011;59977;48.782;9.190;2023-05-20T00:47:13;10.88;;;4.22;;
24631;SDS011;59977;48.782;9.190;2023-05-20T00:49:40;10.02;;;4.07;;
24631;SDS011;59977;48.782;9.190;2023-05-20T00:52:10;8.93;;;4.85;;
24631;SDS011;59977;48.782;9.190;2023-05-20T00:54:36;11.57;;;4.30;;
24631;SDS011;59977;48.782;9.190;2023-05-20T00:57:03;8.90;;;4.18;;
24631;SDS011;59977;48.782;9.190;2023-05-20T00:59:30;17.05;;;4.10;;
24631;SDS011;59977;48.782;9.190;2023-05-20T01:01:56;7.22;;;4.38;;
24631;SDS011;59977;48.782;9.190;2023-05-20T01:04:22;11.30;;;4.20;;
24631;SDS011;59977;48.782;9.190;2023-05-20T01:06:49;9.43;;;4.20;;
24631;SDS011;59977;48.782;9.190;2023-05-20T01:09:14;9.60;;;4.38;;
24631;SDS011;59977;48.782;9.190;2023-05-20T01:11:44;8.27;;;4.25;;
24631;SDS011;59977;48.782;9.190;2023-05-20T01:14:14;12.10;;;4.20;;
24631;SDS011;59977;48.782;9.190;2023-05-20T01:16:42;7.40;;;4.43;;
24631;SDS011;59977;48.782;9.190;2023-05-20T01:19:30;14.15;;;3.92;;
24631;SDS011;59977;48.782;9.190;2023-05-20T01:22:02;7.80;;;4.05;;
24631;SDS011;59977;48.782;9.190;2023-05-20T01:24:31;8.63;;;4.45;;
24631;SDS011;59977;48.782;9.190;2023-05-20T01:26:56;11.10;;;4.13;;
24631;SDS011;59977;48.782;9.190;2023-05-20T01:29:25;11.27;;;4.30;;
24631;SDS011;59977;48.782;9.190;2023-05-20T01:31:51;10.50;;;4.05;;
24631;SDS011;59977;48.782;9.190;2023-05-20T01:34:18;8.93;;;4.07;;
24631;SDS011;59977;48.782;9.190;2023-05-20T01:36:45;8.88;;;4.43;;
24631;SDS011;59977;48.782;9.190;2023-05-20T01:39:11;6.13;;;3.97;;
24631;SDS011;59977;48.782;9.190;2023-05-20T01:41:37;8.80;;;4.15;;
24631;SDS011;59977;48.782;9.190;2023-05-20T01:44:04;8.35;;;3.75;;
24631;SDS011;59977;48.782;9.190;2023-05-20T01:46:33;7.47;;;3.53;;
24631;SDS011;59977;48.782;9.190;2023-05-20T01:48:59;6.25;;;3.47;;
24631;SDS011;59977;48.782;9.190;2023-05-20T01:51:24;11.98;;;3.60;;
24631;SDS011;59977;48.782;9.190;2023-05-20T01:53:50;9.50;;;3.85;;
24631;SDS011;59977;48.782;9.190;2023-05-20T01:56:18;9.85;;;3.92;;
24631;SDS011;59977;48.782;9.190;2023-05-20T01:58:44;7.88;;;3.88;;
24631;SDS011;59977;48.782;9.190;2023-05-20T02:01:09;6.90;;;3.72;;
24631;SDS011;59977;48.782;9.190;2023-05-20T02:03:35;7.55;;;4.00;;
24631;SDS011;59977;48.782;9.190;2023-05-20T02:06:00;6.25;;;3.47;;
24631;SDS011;59977;48.782;9.190;2023-05-20T02:08:26;10.02;;;3.53;;
24631;SDS011;59977;48.782;9.190;2023-05-20T02:10:52;7.05;;;3.90;;
24631;SDS011;59977;48.782;9.190;2023-05-20T02:13:17;7.20;;;4.05;;
24631;SDS011;59977;48.782;9.190;2023-05-20T02:15:43;5.80;;;3.67;;
24631;SDS011;59977;48.782;9.190;2023-05-20T02:18:11;7.10;;;3.45;;
24631;SDS011;59977;48.782;9.190;2023-05-20T02:20:37;6.35;;;3.85;;
24631;SDS011;59977;48.782;9.190;2023-05-20T02:23:03;8.40;;;3.80;;
24631;SDS011;59977;48.782;9.190;2023-05-20T02:25:30;7.63;;;3.83;;
24631;SDS011;59977;48.782;9.190;2023-05-20T02:27:56;6.82;;;3.88;;
24631;SDS011;59977;48.782;9.190;2023-05-20T02:30:21;11.43;;;3.95;;
24631;SDS011;59977;48.782;9.190;2023-05-20T02:32:47;5.88;;;3.75;;
24631;SDS011;59977;48.782;9.190;2023-05-20T02:35:13;8.02;;;4.10;;
24631;SDS011;59977;48.782;9.190;2023-05-20T02:37:39;7.07;;;4.00;;
24631;SDS011;59977;48.782;9.190;2023-05-20T02:40:04;6.43;;;4.00;;
24631;SDS011;59977;48.782;9.190;2023-05-20T02:42:31;6.95;;;3.90;;
24631;SDS011;59977;48.782;9.190;2023-05-20T02:44:56;6.50;;;4.00;;
24631;SDS011;59977;48.782;9.190;2023-05-20T02:47:23;8.25;;;3.92;;
24631;SDS011;59977;48.782;9.190;2023-05-20T02:52:21;6.60;;;3.70;;
24631;SDS011;59977;48.782;9.190;2023-05-20T02:54:47;7.85;;;3.97;;
24631;SDS011;59977;48.782;9.190;2023-05-20T02:57:12;10.77;;;4.43;;
24631;SDS011;59977;48.782;9.190;2023-05-20T02:59:38;8.40;;;3.80;;
24631;SDS011;59977;48.782;9.190;2023-05-20T03:02:06;6.70;;;4.10;;
24631;SDS011;59977;48.782;9.190;2023-05-20T03:04:32;6.68;;;3.92;;
24631;SDS011;59977;48.782;9.190;2023-05-20T03:07:02;7.30;;;3.92;;
24631;SDS011;59977;48.782;9.190;2023-05-20T03:09:29;12.45;;;3.65;;
24631;SDS011;59977;48.782;9.190;2023-05-20T03:11:55;8.15;;;3.53;;
24631;SDS011;59977;48.782;9.190;2023-05-20T03:14:21;9.57;;;4.10;;
24631;SDS011;59977;48.782;9.190;2023-05-20T03:16:46;7.13;;;4.07;;
24631;SDS011;59977;48.782;9.190;2023-05-20T03:19:12;9.70;;;4.18;;
24631;SDS011;59977;48.782;9.190;2023-05-20T03:21:38;8.65;;;4.10;;
24631;SDS011;59977;48.782;9.190;2023-05-20T03:24:03;6.40;;;3.80;;
24631;SDS011;59977;48.782;9.190;2023-05-20T03:26:29;6.85;;;3.83;;
24631;SDS011;59977;48.782;9.190;2023-05-20T03:28:57;5.85;;;3.78;;
24631;SDS011;59977;48.782;9.190;2023-05-20T03:31:22;6.47;;;4.43;;
24631;SDS011;59977;48.782;9.190;2023-05-20T03:33:48;5.38;;;3.90;;
24631;SDS011;59977;48.782;9.190;2023-05-20T03:36:13;9.15;;;4.05;;
24631;SDS011;59977;48.782;9.190;2023-05-20T03:38:39;6.80;;;3.97;;
24631;SDS011;59977;48.782;9.190;2023-05-20T03:41:05;9.52;;;3.95;;
24631;SDS011;59977;48.782;9.190;2023-05-20T03:43:30;6.53;;;3.97;;
24631;SDS011;59977;48.782;9.190;2023-05-20T03:45:56;5.43;;;3.88;;
24631;SDS011;59977;48.782;9.190;2023-05-20T03:48:21;9.10;;;4.05;;
24631;SDS011;59977;48.782;9.190;2023-05-20T03:50:48;6.45;;;3.97;;
24631;SDS011;59977;48.782;9.190;2023-05-20T03:53:13;8.70;;;4.47;;
24631;SDS011;59977;48.782;9.190;2023-05-20T03:55:39;8.15;;;3.80;;
24631;SDS011;59977;48.782;9.190;2023-05-20T03:58:05;8.90;;;4.13;;
24631;SDS011;59977;48.782;9.190;2023-05-20T04:00:32;8.63;;;4.20;;
24631;SDS011;59977;48.782;9.190;2023-05-20T04:02:57;7.20;;;4.13;;
24631;SDS011;59977;48.782;9.190;2023-05-20T04:05:23;5.28;;;3.38;;
24631;SDS011;59977;48.782;9.190;2023-05-20T04:07:49;9.48;;;4.32;;
24631;SDS011;59977;48.782;9.190;2023-05-20T04:10:14;10.75;;;3.78;;
24631;SDS011;59977;48.782;9.190;2023-05-20T04:12:42;8.10;;;4.18;;
24631;SDS011;59977;48.782;9.190;2023-05-20T04:15:08;11.38;;;4.43;;
24631;SDS011;59977;48.782;9.190;2023-05-20T04:17:34;10.27;;;3.80;;
24631;SDS011;59977;48.782;9.190;2023-05-20T04:20:02;6.05;;;3.78;;
24631;SDS011;59977;48.782;9.190;2023-05-20T04:22:31;4.85;;;3.90;;
24631;SDS011;59977;48.782;9.190;2023-05-20T04:24:56;6.07;;;3.67;;
24631;SDS011;59977;48.782;9.190;2023-05-20T04:27:23;9.00;;;4.03;;
24631;SDS011;59977;48.782;9.190;2023-05-20T04:29:49;15.18;;;4.75;;
24631;SDS011;59977;48.782;9.190;2023-05-20T04:32:17;8.80;;;4.20;;
24631;SDS011;59977;48.782;9.190;2023-05-20T04:34:43;8.82;;;4.22;;
24631;SDS011;59977;48.782;9.190;2023-05-20T04:37:10;6.13;;;3.72;;
24631;SDS011;59977;48.782;9.190;2023-05-20T04:39:37;7.90;;;4.00;;
24631;SDS011;59977;48.782;9.190;2023-05-20T04:42:03;6.50;;;4.10;;
24631;SDS011;59977;48.782;9.190;2023-05-20T04:44:29;8.73;;;4.10;;
24631;SDS011;59977;48.782;9.190;2023-05-20T04:46:55;9.10;;;4.07;;
24631;SDS011;59977;48.782;9.190;2023-05-20T04:49:23;11.90;;;4.00;;
24631;SDS011;59977;48.782;9.190;2023-05-20T04:51:50;8.18;;;4.05;;
24631;SDS011;59977;48.782;9.190;2023-05-20T04:54:19;9.07;;;4.22;;
24631;SDS011;59977;48.782;9.190;2023-05-20T04:56:45;13.50;;;4.28;;
24631;SDS011;59977;48.782;9.190;2023-05-20T04:59:11;9.35;;;3.97;;
24631;SDS011;59977;48.782;9.190;2023-05-20T05:01:36;5.97;;;3.72;;
24631;SDS011;59977;48.782;9.190;2023-05-20T05:04:02;8.80;;;4.57;;
24631;SDS011;59977;48.782;9.190;2023-05-20T05:06:28;6.57;;;3.90;;
24631;SDS011;59977;48.782;9.190;2023-05-20T05:08:53;5.60;;;4.00;;
24631;SDS011;59977;48.782;9.190;2023-05-20T05:11:19;9.20;;;4.63;;
24631;SDS011;59977;48.782;9.190;2023-05-20T05:13:45;8.98;;;3.70;;
24631;SDS011;59977;48.782;9.190;2023-05-20T05:16:11;9.48;;;4.10;;
24631;SDS011;59977;48.782;9.190;2023-05-20T05:18:39;7.50;;;3.80;;
24631;SDS011;59977;48.782;9.190;2023-05-20T05:21:05;6.20;;;4.20;;
24631;SDS011;59977;48.782;9.190;2023-05-20T05:23:31;9.35;;;4.65;;
24631;SDS011;59977;48.782;9.190;2023-05-20T05:26:00;7.60;;;4.10;;
24631;SDS011;59977;48.782;9.190;2023-05-20T05:28:26;9.52;;;3.90;;
24631;SDS011;59977;48.782;9.190;2023-05-20T05:30:54;7.75;;;4.13;;
24631;SDS011;59977;48.782;9.190;2023-05-20T05:33:23;10.55;;;3.85;;
24631;SDS011;59977;48.782;9.190;2023-05-20T05:35:48;7.85;;;4.20;;
24631;SDS011;59977;48.782;9.190;2023-05-20T05:38:15;6.85;;;3.97;;
24631;SDS011;59977;48.782;9.190;2023-05-20T05:40:40;8.82;;;4.43;;
24631;SDS011;59977;48.782;9.190;2023-05-20T05:43:06;7.97;;;3.72;;
24631;SDS011;59977;48.782;9.190;2023-05-20T05:45:32;6.95;;;4.25;;
24631;SDS011;59977;48.782;9.190;2023-05-20T05:47:57;11.23;;;3.88;;
24631;SDS011;59977;48.782;9.190;2023-05-20T05:50:23;6.30;;;4.22;;
24631;SDS011;59977;48.782;9.190;2023-05-20T05:52:49;6.38;;;4.35;;
24631;SDS011;59977;48.782;9.190;2023-05-20T05:55:15;4.85;;;3.50;;
24631;SDS011;59977;48.782;9.190;2023-05-20T05:57:42;5.55;;;4.53;;
24631;SDS011;59977;48.782;9.190;2023-05-20T06:00:08;8.10;;;4.38;;
24631;SDS011;59977;48.782;9.190;2023-05-20T06:02:33;9.25;;;4.15;;
24631;SDS011;59977;48.782;9.190;2023-05-20T06:05:03;10.73;;;4.53;;
24631;SDS011;59977;48.782;9.190;2023-05-20T06:07:29;13.52;;;4.20;;
24631;SDS011;59977;48.782;9.190;2023-05-20T06:09:54;8.57;;;4.28;;
24631;SDS011;59977;48.782;9.190;2023-05-20T06:12:20;7.07;;;4.32;;
24631;SDS011;59977;48.782;9.190;2023-05-20T06:14:46;6.20;;;4.05;;
24631;SDS011;59977;48.782;9.190;2023-05-20T06:17:11;9.48;;;4.20;;
24631;SDS011;59977;48.782;9.190;2023-05-20T06:19:37;9.00;;;4.30;;
24631;SDS011;59977;48.782;9.190;2023-05-20T06:22:03;9.27;;;4.35;;
24631;SDS011;59977;48.782;9.190;2023-05-20T06:24:28;8.63;;;4.60;;
24631;SDS011;59977;48.782;9.190;2023-05-20T06:26:54;9.68;;;3.80;;
24631;SDS011;59977;48.782;9.190;2023-05-20T06:29:20;11.25;;;4.35;;
24631;SDS011;59977;48.782;9.190;2023-05-20T06:31:46;6.57;;;4.40;;
24631;SDS011;59977;48.782;9.190;2023-05-20T06:34:11;7.72;;;4.85;;
24631;SDS011;59977;48.782;9.190;2023-05-20T06:36:37;8.02;;;4.43;;
24631;SDS011;59977;48.782;9.190;2023-05-20T06:39:02;6.85;;;4.47;;
24631;SDS011;59977;48.782;9.190;2023-05-20T06:41:30;9.73;;;4.53;;
24631;SDS011;59977;48.782;9.190;2023-05-20T06:43:56;10.23;;;4.88;;
24631;SDS011;59977;48.782;9.190;2023-05-20T06:46:21;6.05;;;4.60;;
24631;SDS011;59977;48.782;9.190;2023-05-20T06:48:47;8.27;;;4.63;;
24631;SDS011;59977;48.782;9.190;2023-05-20T06:51:12;7.40;;;4.50;;
24631;SDS011;59977;48.782;9.190;2023-05-20T06:53:38;11.05;;;4.57;;
24631;SDS011;59977;48.782;9.190;2023-05-20T06:56:04;7.72;;;4.70;;
24631;SDS011;59977;48.782;9.190;2023-05-20T06:58:29;9.13;;;4.40;;
24631;SDS011;59977;48.782;9.190;2023-05-20T07:00:55;9.43;;;4.93;;
24631;SDS011;59977;48.782;9.190;2023-05-20T07:03:21;14.45;;;4.90;;
24631;SDS011;59977;48.782;9.190;2023-05-20T07:05:47;8.60;;;4.60;;
24631;SDS011;59977;48.782;9.190;2023-05-20T07:08:14;8.95;;;4.70;;
24631;SDS011;59977;48.782;9.190;2023-05-20T07:10:43;6.90;;;3.90;;
24631;SDS011;59977;48.782;9.190;2023-05-20T07:13:10;7.47;;;4.40;;
24631;SDS011;59977;48.782;9.190;2023-05-20T07:15:36;9.90;;;4.70;;
24631;SDS011;59977;48.782;9.190;2023-05-20T07:18:01;9.15;;;4.97;;
24631;SDS011;59977;48.782;9.190;2023-05-20T07:20:27;8.85;;;4.75;;
24631;SDS011;59977;48.782;9.190;2023-05-20T07:22:53;6.80;;;4.55;;
24631;SDS011;59977;48.782;9.190;2023-05-20T07:25:18;8.90;;;4.95;;
24631;SDS011;59977;48.782;9.190;2023-05-20T07:27:44;7.90;;;4.80;;
24631;SDS011;59977;48.782;9.190;2023-05-20T07:30:10;6.45;;;4.32;;
24631;SDS011;59977;48.782;9.190;2023-05-20T07:32:36;6.85;;;4.30;;
24631;SDS011;59977;48.782;9.190;2023-05-20T07:35:01;5.88;;;4.35;;
24631;SDS011;59977;48.782;9.190;2023-05-20T07:37:27;7.78;;;4.15;;
24631;SDS011;59977;48.782;9.190;2023-05-20T07:39:53;7.15;;;4.50;;
24631;SDS011;59977;48.782;9.190;2023-05-20T07:42:18;8.48;;;4.20;;
24631;SDS011;59977;48.782;9.190;2023-05-20T07:44:44;7.75;;;4.32;;
24631;SDS011;59977;48.782;9.190;2023-05-20T07:47:09;6.60;;;4.10;;
24631;SDS011;59977;48.782;9.190;2023-05-20T07:49:35;5.95;;;4.28;;
24631;SDS011;59977;48.782;9.190;2023-05-20T07:52:00;8.60;;;4.25;;
24631;SDS011;59977;48.782;9.190;2023-05-20T07:54:26;6.93;;;4.13;;
24631;SDS011;59977;48.782;9.190;2023-05-20T07:56:52;7.60;;;4.38;;
24631;SDS011;59977;48.782;9.190;2023-05-20T07:59:17;5.65;;;4.22;;
24631;SDS011;59977;48.782;9.190;2023-05-20T08:01:43;7.65;;;4.32;;
24631;SDS011;59977;48.782;9.190;2023-05-20T08:04:08;6.63;;;4.35;;
24631;SDS011;59977;48.782;9.190;2023-05-20T08:06:34;8.30;;;4.68;;
24631;SDS011;59977;48.782;9.190;2023-05-20T08:09:00;11.80;;;4.40;;
24631;SDS011;59977;48.782;9.190;2023-05-20T08:11:26;10.45;;;4.30;;
24631;SDS011;59977;48.782;9.190;2023-05-20T08:13:52;8.88;;;4.53;;
24631;SDS011;59977;48.782;9.190;2023-05-20T08:16:19;9.05;;;4.20;;
24631;SDS011;59977;48.782;9.190;2023-05-20T08:18:45;7.03;;;4.65;;
24631;SDS011;59977;48.782;9.190;2023-05-20T08:21:11;9.73;;;4.68;;
24631;SDS011;59977;48.782;9.190;2023-05-20T08:23:37;8.27;;;3.83;;
24631;SDS011;59977;48.782;9.190;2023-05-20T08:26:03;8.73;;;3.90;;
24631;SDS011;59977;48.782;9.190;2023-05-20T08:28:29;7.88;;;4.10;;
24631;SDS011;59977;48.782;9.190;2023-05-20T08:30:55;6.15;;;4.15;;
24631;SDS011;59977;48.782;9.190;2023-05-20T08:33:22;10.10;;;4.32;;
24631;SDS011;59977;48.782;9.190;2023-05-20T08:35:50;6.07;;;4.20;;
24631;SDS011;59977;48.782;9.190;2023-05-20T08:38:16;8.05;;;3.95;;
24631;SDS011;59977;48.782;9.190;2023-05-20T08:40:41;6.28;;;4.18;;
24631;SDS011;59977;48.782;9.190;2023-05-20T08:43:07;6.20;;;4.60;;
24631;SDS011;59977;48.782;9.190;2023-05-20T08:45:33;6.65;;;4.43;;
24631;SDS011;59977;48.782;9.190;2023-05-20T08:48:02;8.50;;;3.92;;
24631;SDS011;59977;48.782;9.190;2023-05-20T08:50:31;5.90;;;4.43;;
24631;SDS011;59977;48.782;9.190;2023-05-20T08:52:57;5.20;;;4.13;;
24631;SDS011;59977;48.782;9.190;2023-05-20T08:55:24;6.45;;;4.15;;
24631;SDS011;59977;48.782;9.190;2023-05-20T08:58:06;8.13;;;4.15;;
24631;SDS011;59977;48.782;9.190;2023-05-20T09:00:32;7.43;;;4.00;;
24631;SDS011;59977;48.782;9.190;2023-05-20T09:02:58;6.78;;;4.10;;
24631;SDS011;59977;48.782;9.190;2023-05-20T09:05:28;6.50;;;4.00;;
24631;SDS011;59977;48.782;9.190;2023-05-20T09:08:03;8.27;;;4.60;;
24631;SDS011;59977;48.782;9.190;2023-05-20T09:10:33;6.93;;;4.28;;
24631;SDS011;59977;48.782;9.190;2023-05-20T09:13:00;8.27;;;5.00;;
24631;SDS011;59977;48.782;9.190;2023-05-20T09:15:28;6.20;;;4.40;;
24631;SDS011;59977;48.782;9.190;2023-05-20T09:17:54;6.22;;;4.40;;
24631;SDS011;59977;48.782;9.190;2023-05-20T09:20:20;6.22;;;4.10;;
24631;SDS011;59977;48.782;9.190;2023-05-20T09:22:49;7.88;;;4.22;;
24631;SDS011;59977;48.782;9.190;2023-05-20T09:25:20;7.70;;;4.10;;
24631;SDS011;59977;48.782;9.190;2023-05-20T09:27:47;8.18;;;4.60;;
24631;SDS011;59977;48.782;9.190;2023-05-20T09:30:13;7.68;;;4.40;;
24631;SDS011;59977;48.782;9.190;2023-05-20T09:32:42;12.80;;;5.35;;
24631;SDS011;59977;48.782;9.190;2023-05-20T09:35:11;7.68;;;4.60;;
24631;SDS011;59977;48.782;9.190;2023-05-20T09:37:37;6.82;;;4.32;;
24631;SDS011;59977;48.782;9.190;2023-05-20T09:40:06;8.10;;;4.32;;
24631;SDS011;59977;48.782;9.190;2023-05-20T09:45:17;8.98;;;4.80;;
24631;SDS011;59977;48.782;9.190;2023-05-20T09:47:43;7.32;;;4.65;;
24631;SDS011;59977;48.782;9.190;2023-05-20T09:50:09;7.35;;;4.30;;
24631;SDS011;59977;48.782;9.190;2023-05-20T09:52:37;12.27;;;4.60;;
24631;SDS011;59977;48.782;9.190;2023-05-20T09:55:04;6.95;;;4.20;;
24631;SDS011;59977;48.782;9.190;2023-05-20T09:57:33;6.78;;;4.70;;
24631;SDS011;59977;48.782;9.190;2023-05-20T09:59:59;5.35;;;4.20;;
24631;SDS011;59977;48.782;9.190;2023-05-20T10:02:26;7.07;;;3.97;;
24631;SDS011;59977;48.782;9.190;2023-05-20T10:04:52;5.38;;;4.18;;
24631;SDS011;59977;48.782;9.190;2023-05-20T10:07:27;11.45;;;4.53;;
24631;SDS011;59977;48.782;9.190;2023-05-20T10:15:21;9.80;;;4.57;;
24631;SDS011;59977;48.782;9.190;2023-05-20T10:18:01;7.65;;;4.63;;
24631;SDS011;59977;48.782;9.190;2023-05-20T10:20:30;9.05;;;4.40;;
24631;SDS011;59977;48.782;9.190;2023-05-20T10:22:56;7.68;;;4.30;;
24631;SDS011;59977;48.782;9.190;2023-05-20T10:25:26;8.05;;;4.43;;
24631;SDS011;59977;48.782;9.190;2023-05-20T10:28:02;5.18;;;4.03;;
24631;SDS011;59977;48.782;9.190;2023-05-20T10:30:31;10.93;;;4.50;;
24631;SDS011;59977;48.782;9.190;2023-05-20T10:33:01;8.25;;;3.92;;
24631;SDS011;59977;48.782;9.190;2023-05-20T10:35:29;7.15;;;4.18;;
24631;SDS011;59977;48.782;9.190;2023-05-20T10:38:08;5.80;;;3.60;;
24631;SDS011;59977;48.782;9.190;2023-05-20T10:40:34;7.00;;;4.07;;
24631;SDS011;59977;48.782;9.190;2023-05-20T10:43:13;8.68;;;4.03;;
24631;SDS011;59977;48.782;9.190;2023-05-20T10:45:50;7.57;;;3.92;;
24631;SDS011;59977;48.782;9.190;2023-05-20T10:48:24;8.93;;;4.05;;
24631;SDS011;59977;48.782;9.190;2023-05-20T10:50:55;5.03;;;3.47;;
24631;SDS011;59977;48.782;9.190;2023-05-20T10:53:38;6.15;;;4.05;;
24631;SDS011;59977;48.782;9.190;2023-05-20T10:56:15;6.63;;;3.97;;
24631;SDS011;59977;48.782;9.190;2023-05-20T10:58:43;5.70;;;3.58;;
24631;SDS011;59977;48.782;9.190;2023-05-20T11:01:09;10.50;;;4.70;;
24631;SDS011;59977;48.782;9.190;2023-05-20T11:03:35;5.90;;;3.65;;
24631;SDS011;59977;48.782;9.190;2023-05-20T11:06:01;5.93;;;4.07;;
24631;SDS011;59977;48.782;9.190;2023-05-20T11:08:34;7.93;;;4.05;;
24631;SDS011;59977;48.782;9.190;2023-05-20T11:11:00;10.73;;;3.90;;
24631;SDS011;59977;48.782;9.190;2023-05-20T11:13:26;4.25;;;3.80;;
24631;SDS011;59977;48.782;9.190;2023-05-20T11:15:51;5.25;;;3.30;;
24631;SDS011;59977;48.782;9.190;2023-05-20T11:18:17;6.53;;;3.95;;
24631;SDS011;59977;48.782;9.190;2023-05-20T11:20:44;5.90;;;3.67;;
24631;SDS011;59977;48.782;9.190;2023-05-20T11:23:13;5.38;;;3.50;;
24631;SDS011;59977;48.782;9.190;2023-05-20T11:25:39;7.70;;;3.90;;
24631;SDS011;59977;48.782;9.190;2023-05-20T11:28:11;13.20;;;3.80;;
24631;SDS011;59977;48.782;9.190;2023-05-20T11:30:41;6.25;;;3.78;;
24631;SDS011;59977;48.782;9.190;2023-05-20T11:33:07;5.10;;;3.80;;
24631;SDS011;59977;48.782;9.190;2023-05-20T11:35:37;5.40;;;3.50;;
24631;SDS011;59977;48.782;9.190;2023-05-20T11:38:13;7.30;;;3.78;;
24631;SDS011;59977;48.782;9.190;2023-05-20T11:40:50;8.55;;;3.80;;
24631;SDS011;59977;48.782;9.190;2023-05-20T11:43:18;6.50;;;3.65;;
24631;SDS011;59977;48.782;9.190;2023-05-20T11:45:44;5.15;;;3.85;;
24631;SDS011;59977;48.782;9.190;2023-05-20T11:48:20;5.28;;;3.60;;
24631;SDS011;59977;48.782;9.190;2023-05-20T11:50:46;4.15;;;3.70;;
24631;SDS011;59977;48.782;9.190;2023-05-20T11:53:16;6.13;;;3.70;;
24631;SDS011;59977;48.782;9.190;2023-05-20T11:55:47;5.13;;;3.22;;
24631;SDS011;59977;48.782;9.190;2023-05-20T11:58:15;5.45;;;3.80;;
24631;SDS011;59977;48.782;9.190;2023-05-20T12:00:43;5.22;;;3.55;;
24631;SDS011;59977;48.782;9.190;2023-05-20T12:03:09;9.63;;;3.83;;
24631;SDS011;59977;48.782;9.190;2023-05-20T12:05:35;6.68;;;3.75;;
24631;SDS011;59977;48.782;9.190;2023-05-20T12:08:01;7.20;;;3.80;;
24631;SDS011;59977;48.782;9.190;2023-05-20T12:10:27;5.50;;;3.47;;
24631;SDS011;59977;48.782;9.190;2023-05-20T12:12:53;4.25;;;3.45;;
24631;SDS011;59977;48.782;9.190;2023-05-20T12:15:19;6.00;;;3.55;;
24631;SDS011;59977;48.782;9.190;2023-05-20T12:17:46;5.82;;;3.50;;
24631;SDS011;59977;48.782;9.190;2023-05-20T12:20:13;9.48;;;5.13;;
24631;SDS011;59977;48.782;9.190;2023-05-20T12:22:41;6.32;;;3.97;;
24631;SDS011;59977;48.782;9.190;2023-05-20T12:25:13;7.78;;;4.22;;
24631;SDS011;59977;48.782;9.190;2023-05-20T12:27:40;6.00;;;3.88;;
24631;SDS011;59977;48.782;9.190;2023-05-20T12:30:07;6.40;;;3.42;;
24631;SDS011;59977;48.782;9.190;2023-05-20T12:32:37;5.28;;;3.35;;
24631;SDS011;59977;48.782;9.190;2023-05-20T12:35:03;12.18;;;3.58;;
24631;SDS011;59977;48.782;9.190;2023-05-20T12:37:29;6.05;;;3.58;;
24631;SDS011;59977;48.782;9.190;2023-05-20T12:39:55;4.95;;;3.70;;
24631;SDS011;59977;48.782;9.190;2023-05-20T12:42:20;4.72;;;3.42;;
24631;SDS011;59977;48.782;9.190;2023-05-20T12:44:46;6.90;;;3.78;;
24631;SDS011;59977;48.782;9.190;2023-05-20T12:47:11;4.15;;;3.50;;
24631;SDS011;59977;48.782;9.190;2023-05-20T12:49:37;5.15;;;3.30;;
24631;SDS011;59977;48.782;9.190;2023-05-20T12:52:03;7.38;;;3.83;;
24631;SDS011;59977;48.782;9.190;2023-05-20T12:54:28;5.25;;;3.40;;
24631;SDS011;59977;48.782;9.190;2023-05-20T12:56:54;4.35;;;3.47;;
24631;SDS011;59977;48.782;9.190;2023-05-20T12:59:20;4.75;;;3.22;;
24631;SDS011;59977;48.782;9.190;2023-05-20T13:01:45;6.60;;;3.28;;
24631;SDS011;59977;48.782;9.190;2023-05-20T13:04:12;6.93;;;3.30;;
24631;SDS011;59977;48.782;9.190;2023-05-20T13:06:37;5.22;;;3.35;;
24631;SDS011;59977;48.782;9.190;2023-05-20T13:09:03;5.80;;;3.17;;
24631;SDS011;59977;48.782;9.190;2023-05-20T13:11:28;3.60;;;2.97;;
24631;SDS011;59977;48.782;9.190;2023-05-20T13:13:54;7.07;;;3.30;;
24631;SDS011;59977;48.782;9.190;2023-05-20T13:16:23;10.30;;;2.97;;
24631;SDS011;59977;48.782;9.190;2023-05-20T13:18:49;8.88;;;2.75;;
24631;SDS011;59977;48.782;9.190;2023-05-20T13:21:15;5.68;;;3.17;;
24631;SDS011;59977;48.782;9.190;2023-05-20T13:23:40;3.95;;;3.00;;
24631;SDS011;59977;48.782;9.190;2023-05-20T13:26:06;6.72;;;2.90;;
24631;SDS011;59977;48.782;9.190;2023-05-20T13:28:33;4.85;;;2.88;;
24631;SDS011;59977;48.782;9.190;2023-05-20T13:31:00;9.52;;;3.05;;
24631;SDS011;59977;48.782;9.190;2023-05-20T13:33:26;4.00;;;2.50;;
24631;SDS011;59977;48.782;9.190;2023-05-20T13:35:52;4.30;;;2.78;;
24631;SDS011;59977;48.782;9.190;2023-05-20T13:38:18;3.22;;;2.88;;
24631;SDS011;59977;48.782;9.190;2023-05-20T13:40:43;3.72;;;2.38;;
24631;SDS011;59977;48.782;9.190;2023-05-20T13:43:12;4.88;;;2.60;;
24631;SDS011;59977;48.782;9.190;2023-05-20T13:45:38;4.07;;;2.35;;
24631;SDS011;59977;48.782;9.190;2023-05-20T13:48:04;7.38;;;2.40;;
24631;SDS011;59977;48.782;9.190;2023-05-20T13:50:29;6.40;;;2.40;;
24631;SDS011;59977;48.782;9.190;2023-05-20T13:52:55;2.78;;;2.15;;
24631;SDS011;59977;48.782;9.190;2023-05-20T13:55:22;7.80;;;2.30;;
24631;SDS011;59977;48.782;9.190;2023-05-20T13:57:47;4.05;;;2.53;;
24631;SDS011;59977;48.782;9.190;2023-05-20T14:00:13;3.00;;;2.40;;
24631;SDS011;59977;48.782;9.190;2023-05-20T14:02:39;4.32;;;2.72;;
24631;SDS011;59977;48.782;9.190;2023-05-20T14:05:05;6.82;;;2.95;;
24631;SDS011;59977;48.782;9.190;2023-05-20T14:07:31;3.92;;;3.10;;
24631;SDS011;59977;48.782;9.190;2023-05-20T14:09:57;5.65;;;3.13;;
24631;SDS011;59977;48.782;9.190;2023-05-20T14:12:22;4.55;;;2.85;;
24631;SDS011;59977;48.782;9.190;2023-05-20T14:14:48;5.47;;;2.80;;
24631;SDS011;59977;48.782;9.190;2023-05-20T14:17:16;4.85;;;2.80;;
24631;SDS011;59977;48.782;9.190;2023-05-20T14:19:42;4.53;;;2.60;;
24631;SDS011;59977;48.782;9.190;2023-05-20T14:22:08;4.15;;;2.70;;
24631;SDS011;59977;48.782;9.190;2023-05-20T14:24:34;9.25;;;3.35;;
24631;SDS011;59977;48.782;9.190;2023-05-20T14:27:07;6.60;;;2.70;;
24631;SDS011;59977;48.782;9.190;2023-05-20T14:29:32;6.22;;;2.75;;
24631;SDS011;59977;48.782;9.190;2023-05-20T14:31:58;4.82;;;3.13;;
24631;SDS011;59977;48.782;9.190;2023-05-20T14:34:25;7.18;;;2.97;;
24631;SDS011;59977;48.782;9.190;2023-05-20T14:36:51;3.38;;;2.88;;
24631;SDS011;59977;48.782;9.190;2023-05-20T14:39:16;4.68;;;2.80;;
24631;SDS011;59977;48.782;9.190;2023-05-20T14:41:42;4.18;;;2.60;;
24631;SDS011;59977;48.782;9.190;2023-05-20T14:44:08;3.08;;;2.28;;
24631;SDS011;59977;48.782;9.190;2023-05-20T14:46:36;4.40;;;2.55;;
24631;SDS011;59977;48.782;9.190;2023-05-20T14:49:02;2.95;;;2.60;;
24631;SDS011;59977;48.782;9.190;2023-05-20T14:51:27;3.58;;;2.72;;
24631;SDS011;59977;48.782;9.190;2023-05-20T14:53:53;6.43;;;2.70;;